createdAt,value
2019-05-13T00:04:58.108Z,2.35
2019-05-13T00:10:07.309Z,2.12
2019-05-13T00:12:41.232Z,1.92
2019-05-13T00:17:48.777Z,2.10
2019-05-13T00:20:24.144Z,1.77
2019-05-13T00:22:58.313Z,1.75
2019-05-13T00:28:06.856Z,2.08
2019-05-13T00:30:40.844Z,1.70
2019-05-13T00:35:48.037Z,1.70
2019-05-13T00:38:23.979Z,1.95
2019-05-13T00:40:57.403Z,1.80
2019-05-13T00:43:33.652Z,2.00
2019-05-13T00:46:06.876Z,1.70
2019-05-13T00:48:40.731Z,1.90
2019-05-13T00:51:14.875Z,1.67
2019-05-13T00:53:48.842Z,1.98
2019-05-13T00:56:23.758Z,1.60
2019-05-13T00:58:58.221Z,1.80
2019-05-13T01:01:33.520Z,1.47
2019-05-13T01:04:07.702Z,1.55
2019-05-13T01:11:49.619Z,1.70
2019-05-13T01:14:23.653Z,1.95
2019-05-13T01:19:30.744Z,1.62
2019-05-13T01:24:37.877Z,1.40
2019-05-13T01:27:14.005Z,1.62
2019-05-13T01:29:48.101Z,1.45
2019-05-13T01:32:23.888Z,1.55
2019-05-13T01:34:57.792Z,1.50
2019-05-13T01:37:39.993Z,1.77
2019-05-13T01:40:07.979Z,1.60
2019-05-13T01:42:44.196Z,1.90
2019-05-13T01:45:17.361Z,1.82
2019-05-13T01:47:51.208Z,1.50
2019-05-13T01:50:25.081Z,1.60
2019-05-13T01:52:58.983Z,1.62
2019-05-13T01:55:33.891Z,1.30
2019-05-13T01:58:08.239Z,1.50
2019-05-13T02:00:44.233Z,1.70
2019-05-13T02:03:17.594Z,1.50
2019-05-13T02:05:51.437Z,1.60
2019-05-13T02:08:25.409Z,1.57
2019-05-13T02:13:34.411Z,1.75
2019-05-13T02:16:08.216Z,1.85
2019-05-13T02:18:44.322Z,1.67
2019-05-13T02:21:17.775Z,1.77
2019-05-13T02:23:53.642Z,1.90
2019-05-13T02:26:27.374Z,1.60
2019-05-13T02:31:45.238Z,1.70
2019-05-13T02:34:13.349Z,1.87
2019-05-13T02:36:45.901Z,1.82
2019-05-13T02:44:27.790Z,1.72
2019-05-13T02:47:03.313Z,1.90
2019-05-13T02:49:37.337Z,1.90
2019-05-13T02:52:13.239Z,1.50
2019-05-13T02:54:46.888Z,1.60
2019-05-13T03:00:16.532Z,1.70
2019-05-13T03:02:52.380Z,1.72
2019-05-13T03:05:25.932Z,1.75
2019-05-13T03:08:03.031Z,1.60
2019-05-13T03:10:35.597Z,1.90
2019-05-13T03:15:44.167Z,1.80
2019-05-13T03:18:22.267Z,1.70
2019-05-13T03:20:54.331Z,2.00
2019-05-13T03:26:02.855Z,1.47
2019-05-13T03:28:37.006Z,1.72
2019-05-13T03:33:47.374Z,2.27
2019-05-13T03:36:25.945Z,1.90
2019-05-13T03:39:05.702Z,1.80
2019-05-13T03:41:34.877Z,1.80
2019-05-13T03:44:13.454Z,1.77
2019-05-13T03:46:52.667Z,1.60
2019-05-13T03:49:28.363Z,1.80
2019-05-13T03:52:03.274Z,1.90
2019-05-13T03:54:37.565Z,1.90
2019-05-13T03:59:46.494Z,1.70
2019-05-13T04:02:22.619Z,1.82
2019-05-13T04:04:58.988Z,1.98
2019-05-13T04:07:32.715Z,1.95
2019-05-13T04:10:07.742Z,1.87
2019-05-13T04:12:42.546Z,1.92
2019-05-13T04:15:17.118Z,1.80
2019-05-13T04:17:53.165Z,1.50
2019-05-13T04:20:27.391Z,1.77
2019-05-13T04:23:26.663Z,1.57
2019-05-13T04:26:02.954Z,1.62
2019-05-13T04:28:36.408Z,1.67
2019-05-13T04:31:13.686Z,3.15
2019-05-13T04:33:45.779Z,2.05
2019-05-13T04:36:23.061Z,1.40
2019-05-13T04:38:55.339Z,1.32
2019-05-13T04:41:29.427Z,1.45
2019-05-13T04:46:37.021Z,1.70
2019-05-13T04:49:12.531Z,1.35
2019-05-13T04:51:46.933Z,2.45
2019-05-13T04:54:22.535Z,1.40
2019-05-13T04:56:56.597Z,1.30
2019-05-13T04:59:33.864Z,1.40
2019-05-13T05:02:46.113Z,1.60
2019-05-13T05:05:24.032Z,2.20
2019-05-13T05:08:12.202Z,1.90
2019-05-13T05:11:06.406Z,1.47
2019-05-13T05:13:43.174Z,1.30
2019-05-13T05:16:44.759Z,1.30
2019-05-13T05:19:37.460Z,1.20
2019-05-13T05:22:36.954Z,1.65
2019-05-13T05:25:22.432Z,1.50
2019-05-13T05:28:21.908Z,2.95
2019-05-13T05:31:19.717Z,2.10
2019-05-13T05:34:22.461Z,1.80
2019-05-13T05:37:08.053Z,1.00
2019-05-13T05:39:42.634Z,0.88
2019-05-13T05:42:17.495Z,1.27
2019-05-13T05:44:53.282Z,1.10
2019-05-13T05:47:29.074Z,1.32
2019-05-13T05:50:03.331Z,3.20
2019-05-13T05:52:39.028Z,3.35
2019-05-13T05:55:13.178Z,1.77
2019-05-13T05:57:47.814Z,1.90
2019-05-13T06:00:22.106Z,1.20
2019-05-13T06:02:57.857Z,1.67
2019-05-13T06:05:32.032Z,1.50
2019-05-13T06:08:07.490Z,2.85
2019-05-13T06:10:47.317Z,2.40
2019-05-13T06:13:17.796Z,1.72
2019-05-13T06:15:51.717Z,1.65
2019-05-13T06:18:25.720Z,1.15
2019-05-13T06:23:32.746Z,1.05
2019-05-13T06:26:06.742Z,1.10
2019-05-13T06:28:41.436Z,1.35
2019-05-13T06:31:16.158Z,1.40
2019-05-13T06:33:51.463Z,1.10
2019-05-13T06:36:26.111Z,1.42
2019-05-13T06:39:02.200Z,1.10
2019-05-13T06:41:35.914Z,1.50
2019-05-13T06:46:43.107Z,1.50
2019-05-13T06:51:51.990Z,1.30
2019-05-13T06:54:25.717Z,1.20
2019-05-13T06:57:03.413Z,1.05
2019-05-13T06:59:35.111Z,1.20
2019-05-13T07:02:09.175Z,1.72
2019-05-13T07:04:43.054Z,1.47
2019-05-13T07:07:17.560Z,1.98
2019-05-13T07:09:51.960Z,0.80
2019-05-13T07:12:25.923Z,0.80
2019-05-13T07:15:02.264Z,1.05
2019-05-13T07:17:35.588Z,1.17
2019-05-13T07:20:11.680Z,0.70
2019-05-13T07:22:45.966Z,0.90
2019-05-13T07:25:22.166Z,1.10
2019-05-13T07:27:55.562Z,0.80
2019-05-13T07:33:16.648Z,0.98
2019-05-13T07:35:57.197Z,1.02
2019-05-13T07:38:27.365Z,1.10
2019-05-13T07:41:03.404Z,1.50
2019-05-13T07:43:37.373Z,1.20
2019-05-13T07:46:12.613Z,1.60
2019-05-13T07:48:46.655Z,0.75
2019-05-13T07:51:22.186Z,0.72
2019-05-13T07:53:56.279Z,0.90
2019-05-13T07:56:32.431Z,0.95
2019-05-13T07:59:05.687Z,0.80
2019-05-13T08:01:41.761Z,0.85
2019-05-13T08:04:22.242Z,1.30
2019-05-13T08:06:52.398Z,1.17
2019-05-13T08:09:26.291Z,1.00
2019-05-13T08:12:09.669Z,1.47
2019-05-13T08:14:35.810Z,1.70
2019-05-13T08:17:11.692Z,1.50
2019-05-13T08:19:45.874Z,5.22
2019-05-13T08:24:54.642Z,3.22
2019-05-13T08:32:36.403Z,1.17
2019-05-13T08:35:12.499Z,1.50
2019-05-13T08:37:46.220Z,1.30
2019-05-13T08:40:23.177Z,1.50
2019-05-13T08:42:55.995Z,1.50
2019-05-13T08:45:31.502Z,1.40
2019-05-13T08:48:05.702Z,1.77
2019-05-13T08:53:14.548Z,1.60
2019-05-13T08:55:48.489Z,1.32
2019-05-13T08:58:22.453Z,1.98
2019-05-13T09:00:58.992Z,1.70
2019-05-13T09:03:32.732Z,1.25
2019-05-13T09:06:06.942Z,1.40
2019-05-13T09:11:15.652Z,1.50
2019-05-13T09:16:22.792Z,1.62
2019-05-13T09:18:56.672Z,1.50
2019-05-13T09:21:31.836Z,1.92
2019-05-13T09:24:20.744Z,1.98
2019-05-13T09:26:42.205Z,1.98
2019-05-13T09:29:16.518Z,1.32
2019-05-13T09:34:25.114Z,1.57
2019-05-13T09:36:59.091Z,2.50
2019-05-13T09:42:07.766Z,1.35
2019-05-13T09:44:42.069Z,1.50
2019-05-13T09:47:16.220Z,1.52
2019-05-13T09:49:50.191Z,1.20
2019-05-13T09:52:24.128Z,1.22
2019-05-13T09:54:58.180Z,1.27
2019-05-13T10:00:08.366Z,1.60
2019-05-13T10:02:42.774Z,1.42
2019-05-13T10:05:16.800Z,1.30
2019-05-13T10:07:50.724Z,1.17
2019-05-13T10:10:24.770Z,1.50
2019-05-13T10:18:07.171Z,1.50
2019-05-13T10:23:16.786Z,1.40
2019-05-13T10:25:53.311Z,1.50
2019-05-13T10:28:28.200Z,1.40
2019-05-13T10:31:05.121Z,1.37
2019-05-13T10:33:39.045Z,1.10
2019-05-13T10:36:12.970Z,1.30
2019-05-13T10:38:46.938Z,1.40
2019-05-13T10:41:22.208Z,1.72
2019-05-13T10:43:56.305Z,1.40
2019-05-13T10:46:32.078Z,1.72
2019-05-13T10:49:06.179Z,1.45
2019-05-13T10:51:41.838Z,1.77
2019-05-13T10:54:16.731Z,1.50
2019-05-13T10:56:53.166Z,1.60
2019-05-13T10:59:26.267Z,1.72
2019-05-13T11:02:02.125Z,1.80
2019-05-13T11:04:35.786Z,1.60
2019-05-13T11:07:12.094Z,2.12
2019-05-13T11:09:45.526Z,1.77
2019-05-13T11:12:19.670Z,1.65
2019-05-13T11:14:55.490Z,1.30
2019-05-13T11:17:31.595Z,1.70
2019-05-13T11:20:07.224Z,2.10
2019-05-13T11:22:41.080Z,1.47
2019-05-13T11:27:48.373Z,2.30
2019-05-13T11:30:22.932Z,3.35
2019-05-13T11:32:56.891Z,1.60
2019-05-13T11:35:31.955Z,2.12
2019-05-13T11:38:06.103Z,1.92
2019-05-13T11:40:40.206Z,1.70
2019-05-13T11:45:47.137Z,1.85
2019-05-13T11:50:56.257Z,1.57
2019-05-13T11:53:33.439Z,1.80
2019-05-13T11:56:06.074Z,1.40
2019-05-13T12:01:14.653Z,1.80
2019-05-13T12:03:48.722Z,1.87
2019-05-13T12:06:23.619Z,1.85
2019-05-13T12:08:57.827Z,1.42
2019-05-13T12:16:42.320Z,1.52
2019-05-13T12:19:15.387Z,1.80
2019-05-13T12:21:49.254Z,1.52
2019-05-13T12:24:23.135Z,1.50
2019-05-13T12:26:57.159Z,1.62
2019-05-13T12:32:04.609Z,1.40
2019-05-13T12:34:41.871Z,2.30
2019-05-13T12:37:14.211Z,1.25
2019-05-13T12:39:48.115Z,2.72
2019-05-13T12:42:22.842Z,2.00
2019-05-13T12:45:09.003Z,3.00
2019-05-13T12:47:32.401Z,1.50
2019-05-13T12:50:13.298Z,3.45
2019-05-13T12:52:45.458Z,3.22
2019-05-13T12:55:21.760Z,1.77
2019-05-13T12:57:55.272Z,2.90
2019-05-13T13:00:29.325Z,1.70
2019-05-13T13:03:04.201Z,2.42
2019-05-13T13:05:38.121Z,1.65
2019-05-13T13:08:23.889Z,1.75
2019-05-13T13:10:49.446Z,1.70
2019-05-13T13:13:52.450Z,2.45
2019-05-13T13:16:03.514Z,2.27
2019-05-13T13:18:36.074Z,3.87
2019-05-13T13:21:14.508Z,3.72
2019-05-13T13:23:45.902Z,2.85
2019-05-13T13:26:21.753Z,3.37
2019-05-13T13:28:56.905Z,5.22
2019-05-13T13:31:33.705Z,4.12
2019-05-13T13:36:46.077Z,2.37
2019-05-13T13:39:24.896Z,2.90
2019-05-13T13:41:54.675Z,4.53
2019-05-13T13:44:34.748Z,3.15
2019-05-13T13:47:04.554Z,2.50
2019-05-13T13:52:15.938Z,3.20
2019-05-13T13:54:47.503Z,5.60
2019-05-13T13:57:25.657Z,2.80
2019-05-13T14:00:20.148Z,2.75
2019-05-13T14:02:37.029Z,3.50
2019-05-13T14:05:08.592Z,4.00
2019-05-13T14:06:58.379Z,2.45
2019-05-13T14:07:42.792Z,3.02
2019-05-13T14:10:17.449Z,3.30
2019-05-13T14:12:52.446Z,4.20
2019-05-13T14:15:26.679Z,4.85
2019-05-13T14:18:00.754Z,3.42
2019-05-13T14:20:34.709Z,3.85
2019-05-13T14:25:42.236Z,2.50
2019-05-13T14:28:17.515Z,6.03
2019-05-13T14:30:51.797Z,4.70
2019-05-13T14:33:25.674Z,3.62
2019-05-13T14:36:01.512Z,3.05
2019-05-13T14:38:35.826Z,2.30
2019-05-13T14:43:44.713Z,3.30
2019-05-13T14:46:18.747Z,4.00
2019-05-13T14:48:53.000Z,2.77
2019-05-13T14:51:27.078Z,2.37
2019-05-13T14:56:36.143Z,3.60
2019-05-13T15:04:21.931Z,2.55
2019-05-13T15:06:54.200Z,2.83
2019-05-13T15:09:28.168Z,2.70
2019-05-13T15:12:02.484Z,2.70
2019-05-13T15:14:39.825Z,2.45
2019-05-13T15:17:30.530Z,2.65
2019-05-13T15:19:48.091Z,2.20
2019-05-13T15:22:22.692Z,2.45
2019-05-13T15:24:57.348Z,2.92
2019-05-13T15:27:31.790Z,2.70
2019-05-13T15:30:17.403Z,2.92
2019-05-13T15:32:44.571Z,3.37
2019-05-13T15:35:18.830Z,3.42
2019-05-13T15:37:53.287Z,3.08
2019-05-13T15:40:27.207Z,3.80
2019-05-13T15:43:02.394Z,3.02
2019-05-13T15:45:36.739Z,2.50
2019-05-13T15:48:11.595Z,3.98
2019-05-13T15:50:45.740Z,3.30
2019-05-13T15:55:55.079Z,7.60
2019-05-13T15:58:38.929Z,6.33
2019-05-13T16:01:05.396Z,10.82
2019-05-13T16:03:41.545Z,8.50
2019-05-13T16:06:16.075Z,25.72
2019-05-13T16:08:51.820Z,30.97
2019-05-13T16:11:25.970Z,13.50
2019-05-13T16:14:01.842Z,6.90
2019-05-13T16:16:35.686Z,6.40
2019-05-13T16:21:43.058Z,6.85
2019-05-13T16:24:17.335Z,4.92
2019-05-13T16:26:52.124Z,3.95
2019-05-13T16:29:26.464Z,12.40
2019-05-13T16:37:08.452Z,68.42
2019-05-13T16:39:42.253Z,18.48
2019-05-13T16:42:16.069Z,7.92
2019-05-13T16:44:51.585Z,7.92
2019-05-13T16:47:25.642Z,12.35
2019-05-13T16:50:02.478Z,11.53
2019-05-13T16:52:35.226Z,12.28
2019-05-13T16:55:09.448Z,3.95
2019-05-13T16:57:43.270Z,5.72
2019-05-13T17:00:17.624Z,11.40
2019-05-13T17:02:51.953Z,8.13
2019-05-13T17:05:26.263Z,4.80
2019-05-13T17:08:02.051Z,6.90
2019-05-13T17:10:36.052Z,7.28
2019-05-13T17:18:17.910Z,3.35
2019-05-13T17:20:52.137Z,6.83
2019-05-13T17:23:26.045Z,8.13
2019-05-13T17:26:01.927Z,11.53
2019-05-13T17:28:36.129Z,4.08
2019-05-13T17:31:11.508Z,4.53
2019-05-13T17:33:45.574Z,3.90
2019-05-13T17:36:21.635Z,4.25
2019-05-13T17:38:55.116Z,3.12
2019-05-13T17:41:29.051Z,6.55
2019-05-13T17:44:02.930Z,6.65
2019-05-13T17:46:36.781Z,5.35
2019-05-13T17:49:11.771Z,6.75
2019-05-13T17:51:46.065Z,5.95
2019-05-13T17:54:22.035Z,8.95
2019-05-13T17:56:55.572Z,9.50
2019-05-13T17:59:31.445Z,11.22
2019-05-13T18:02:04.964Z,12.65
2019-05-13T18:04:38.801Z,5.70
2019-05-13T18:07:12.797Z,6.33
2019-05-13T18:09:46.752Z,2.87
2019-05-13T18:12:22.271Z,7.67
2019-05-13T18:14:59.178Z,11.10
2019-05-13T18:17:33.775Z,13.18
2019-05-13T18:20:08.216Z,16.97
2019-05-13T18:22:42.720Z,11.35
2019-05-13T18:25:16.959Z,9.43
2019-05-13T18:27:52.079Z,20.57
2019-05-13T18:30:26.245Z,8.38
2019-05-13T18:33:01.241Z,18.90
2019-05-13T18:35:35.633Z,10.55
2019-05-13T18:38:11.765Z,14.70
2019-05-13T18:40:45.432Z,11.48
2019-05-13T18:45:53.000Z,22.10
2019-05-13T18:48:27.221Z,19.52
2019-05-13T18:51:01.650Z,12.63
2019-05-13T18:53:35.858Z,9.23
2019-05-13T18:56:12.252Z,9.08
2019-05-13T18:58:45.605Z,5.55
2019-05-13T19:03:55.835Z,8.20
2019-05-13T19:09:07.804Z,31.17
2019-05-13T19:11:42.986Z,12.98
2019-05-13T19:14:17.399Z,10.32
2019-05-13T19:16:51.591Z,8.88
2019-05-13T19:19:25.813Z,11.78
2019-05-13T19:22:02.109Z,14.15
2019-05-13T19:24:36.757Z,13.08
2019-05-13T19:27:12.038Z,9.83
2019-05-13T19:29:46.669Z,9.78
2019-05-13T19:32:22.099Z,10.80
2019-05-13T19:34:57.991Z,14.40
2019-05-13T19:37:32.273Z,6.47
2019-05-13T19:40:08.641Z,7.45
2019-05-13T19:42:45.729Z,10.55
2019-05-13T19:45:21.741Z,9.40
2019-05-13T19:47:56.599Z,9.13
2019-05-13T19:50:31.616Z,10.70
2019-05-13T19:53:07.016Z,11.18
2019-05-13T19:55:41.714Z,11.93
2019-05-13T19:58:16.305Z,11.78
2019-05-13T20:00:51.621Z,10.93
2019-05-13T20:03:26.269Z,9.25
2019-05-13T20:06:03.996Z,12.10
2019-05-13T20:08:38.256Z,12.30
2019-05-13T20:11:12.895Z,7.00
2019-05-13T20:13:47.526Z,8.30
2019-05-13T20:16:22.430Z,7.40
2019-05-13T20:18:56.443Z,9.08
2019-05-13T20:26:47.417Z,8.58
2019-05-13T20:29:21.453Z,9.15
2019-05-13T20:34:28.711Z,9.28
2019-05-13T20:37:03.118Z,7.80
2019-05-13T20:39:38.459Z,8.23
2019-05-13T20:42:12.725Z,8.20
2019-05-13T20:44:46.692Z,19.87
2019-05-13T20:52:31.418Z,20.65
2019-05-13T20:55:09.315Z,19.65
2019-05-13T20:57:43.156Z,12.68
2019-05-13T21:00:17.522Z,12.50
2019-05-13T21:02:51.848Z,12.88
2019-05-13T21:05:25.860Z,17.32
2019-05-13T21:10:34.803Z,11.90
2019-05-13T21:15:42.540Z,10.23
2019-05-13T21:18:16.612Z,8.83
2019-05-13T21:20:52.055Z,9.20
2019-05-13T21:23:25.981Z,8.93
2019-05-13T21:26:01.598Z,8.70
2019-05-13T21:28:35.809Z,9.08
2019-05-13T21:36:17.943Z,9.43
2019-05-13T21:41:25.178Z,8.30
2019-05-13T21:46:32.245Z,8.05
2019-05-13T21:49:06.054Z,7.85
2019-05-13T21:51:41.751Z,8.40
2019-05-13T21:54:16.902Z,7.80
2019-05-13T21:56:51.600Z,8.58
2019-05-13T21:59:25.604Z,8.50
2019-05-13T22:04:33.135Z,12.68
2019-05-13T22:07:07.093Z,8.50
2019-05-13T22:17:25.941Z,8.83
2019-05-13T22:20:01.878Z,10.45
2019-05-13T22:22:35.566Z,9.30
2019-05-13T22:25:12.023Z,8.33
2019-05-13T22:27:45.299Z,7.92
2019-05-13T22:30:19.495Z,7.17
2019-05-13T22:32:53.445Z,7.62
2019-05-13T22:38:01.742Z,7.33
2019-05-13T22:40:35.919Z,7.08
2019-05-13T22:45:43.152Z,7.33
2019-05-13T22:48:17.077Z,8.00
2019-05-13T22:50:52.154Z,7.12
2019-05-13T22:53:26.171Z,7.15
2019-05-13T22:55:59.979Z,6.70
2019-05-13T22:58:33.923Z,6.90
2019-05-13T23:01:07.766Z,6.20
2019-05-13T23:03:41.593Z,6.25
2019-05-13T23:06:15.439Z,5.87
2019-05-13T23:08:49.291Z,6.42
2019-05-13T23:11:23.209Z,6.47
2019-05-13T23:14:07.285Z,7.20
2019-05-13T23:16:33.876Z,7.30
2019-05-13T23:19:07.815Z,7.75
2019-05-13T23:21:41.949Z,7.12
2019-05-13T23:24:16.187Z,6.87
2019-05-13T23:26:51.529Z,7.12
2019-05-13T23:29:25.773Z,7.15
2019-05-13T23:32:01.451Z,7.60
2019-05-13T23:34:35.261Z,7.17
2019-05-13T23:37:11.230Z,7.65
2019-05-13T23:39:44.661Z,7.67
2019-05-13T23:42:18.629Z,8.38
2019-05-13T23:44:52.595Z,8.43
2019-05-13T23:47:26.427Z,8.45
2019-05-13T23:50:02.005Z,8.40
2019-05-13T23:52:35.947Z,8.70
2019-05-13T23:55:11.511Z,9.15
2019-05-13T23:57:45.329Z,9.58
